Insider Trading activities of Sunpower Corp insiders. , Part 2

Monthly summaries of insider trading activities (stock purchases, sales, and option exercises) reported by insiders of Sunpower Corp since 2005 are illustrated in Table 1 and Table 2. Table 1 shows the monthly insider trading data of Sunpower Corp since year 2005. (See page 1 of this report.) Table 2 shows the detailed insider transactions of Sunpower Corp since 2005. The reporting company's ticker symbol is SPWR. The reporting company's CIK number is 867773.
The total value of stock buying since 2005 is $166,419,496.
The total value of stock sales since 2005 is $915,066,734.
The total value of stock option exercises since 2005 is $22,952,770.



Table 2. Detailed insider stock purchases, sales, and option exercises of Sunpower Corp insiders (SPWR) , Part 2
  Trade Date   Insider Name Trade Type     Shares       Price ($)   Value ($)
2013-08-15 Bodensteiner Lisa Marie (EVP & General Counsel) Option Ex 33,333 .00 0
2013-08-15 Boynton Charles D (EVP & CFO) Sale 5,000 21.38 106,900
2013-08-12 Wood Patrick Iii Option Ex 3,375 .00 0
2013-08-12 Lesjak Catherine A Option Ex 3,375 .00 0
2013-08-12 Mcdaniel Thomas R Option Ex 3,375 .00 0
2013-08-05 Boynton Charles D (EVP & CFO) Option Ex 10,001 .00 0
2013-07-01 Werner Thomas H (Director, Pres and CEO) Sale 100,000 21.43 2,143,300
2013-06-06 Lesjak Catherine A Option Ex 1,032 .00 0
2013-06-04 Branderiz Eric (SVP & Prin Acct Officer) Sale 4,161 18.92 78,726
2013-06-03 Richards Douglas J. (EVP, Administration) Sale 31,930 18.61 594,249
2013-06-01 Richards Douglas J. (EVP, Administration) Option Ex 33,333 .00 0
2013-06-01 Wenger Howard (President, Regions) Option Ex 40,000 .00 0
2013-06-01 Branderiz Eric (SVP & Prin Acct Officer) Option Ex 6,667 .00 0
2013-06-01 Neese Marty T (Chief Operating Officer) Option Ex 40,000 .00 0
2013-06-01 Werner Thomas H (Director, Pres and CEO) Option Ex 100,000 .00 0
2013-06-01 Boynton Charles D (EVP & CFO) Option Ex 6,667 .00 0
2013-05-31 Richards Douglas J. (EVP, Administration) Sale 5,108 20.24 103,385
2013-05-24 Richards Douglas J. (EVP, Administration) Sale 4,782 19.28 92,196
2013-05-17 Richards Douglas J. (EVP, Administration) Sale 2,218 20.17 44,737
2013-05-17 Boynton Charles D (EVP & CFO) Sale 9,926 20.17 200,207
2013-05-16 Werner Thomas H (Director, Pres and CEO) Sale 100,000 20.62 2,062,099
2013-05-13 Branderiz Eric (SVP & Prin Acct Officer) Sale 2,165 19.00 41,135
2013-05-13 Wood Patrick Iii Option Ex 4,004 .00 0
2013-05-13 Mcdaniel Thomas R Option Ex 4,004 .00 0
2013-05-10 Richards Douglas J. (EVP, Administration) Sale 13,003 17.40 226,226
2013-05-03 Richards Douglas J. (EVP, Administration) Sale 4,161 15.10 62,831
2013-05-03 Boynton Charles D (EVP & CFO) Sale 12,556 15.10 189,570
2013-03-01 Richards Douglas J. (EVP, Administration) Option Ex 75,833 .00 0
2013-03-01 Wenger Howard (President, Regions) Option Ex 109,592 .00 0
2013-03-01 Branderiz Eric (SVP & Prin Acct Officer) Option Ex 3,453 .00 0
2013-03-01 Neese Marty T (Chief Operating Officer) Option Ex 135,975 .00 0
2013-03-01 Werner Thomas H (Director, Pres and CEO) Option Ex 289,915 .00 0
2013-03-01 Boynton Charles D (EVP & CFO) Option Ex 65,615 .00 0
2013-02-12 Branderiz Eric (SVP & Prin Acct Officer) Sale 10,550 9.86 103,970
2013-02-11 Wood Patrick Iii Option Ex 7,944 .00 0
2013-02-11 Mcdaniel Thomas R Option Ex 7,944 .00 0
2013-01-03 Wood Patrick Iii Sale 24,196 8.37 202,447
2012-11-14 Wood Patrick Iii Sale 16,304 4.19 68,297
2012-11-12 Wood Patrick Iii Option Ex 16,304 .00 0
2012-11-12 Mcdaniel Thomas R Option Ex 16,304 .00 0
2012-11-05 Richards Douglas J. (EVP, Administration) Sale 7,036 4.27 30,036
2012-10-01 Richards Douglas J. (EVP, Administration) Sale 7,035 4.42 31,129
2012-09-14 Branderiz Eric (SVP & Prin Acct Officer) Option Ex 3,333 .00 0
2012-09-04 Richards Douglas J. (EVP, Administration) Sale 7,035 4.43 31,165
2012-09-04 Branderiz Eric (SVP & Prin Acct Officer) Option Ex 6,666 .00 0
2012-08-15 Wood Patrick Iii Sale 17,523 4.24 74,262
2012-08-13 Wood Patrick Iii Option Ex 17,523 .00 0
2012-08-13 Mcdaniel Thomas R Option Ex 17,523 .00 0
2012-08-13 Atkins Betsy S Option Ex 17,523 .00 0
2012-08-10 Richards Douglas J. (EVP, Administration) Sale 27,912 4.23 117,956
2012-08-05 Boynton Charles D (EVP & CFO) Option Ex 9,999 .00 0
2012-06-06 Wenger Howard (President, Regions) Buy 20,013 4.95 99,064
2012-06-01 Jaap Christopher (Acting General Counsel) Option Ex 1,675 .00 0
2012-06-01 Richards Douglas J. (EVP, Administration) Option Ex 33,333 .00 0
2012-06-01 Wenger Howard (President, Regions) Option Ex 40,000 .00 0
2012-06-01 Branderiz Eric (Principle Accounting Officer) Option Ex 6,666 .00 0
2012-06-01 Neese Marty T (Chief Operating Officer) Option Ex 40,000 .00 0
2012-06-01 Werner Thomas H (Director, Pres and CEO) Option Ex 100,000 .00 0
2012-06-01 Boynton Charles D (EVP & CFO) Option Ex 6,666 .00 0
2012-05-16 Atkins Betsy S Sale 13,537 5.26 71,177
2012-05-15 Wood Patrick Iii Sale 13,537 5.37 72,653
2012-05-11 Wood Patrick Iii Option Ex 13,537 .00 0
2012-05-11 Albrecht W Steve Option Ex 13,537 .00 0
2012-05-11 Mcdaniel Thomas R Option Ex 13,537 .00 0
2012-05-11 Atkins Betsy S Option Ex 13,537 .00 0
2012-05-03 Richards Douglas J. (EVP, Administration) Option Ex 3,334 .00 0
2012-05-03 Wenger Howard (President, Regions) Option Ex 5,000 .00 0
2012-03-19 Neese Marty T (Chief Operating Officer) Option Ex 30,900 .00 0
2012-03-09 Atkins Betsy S Sale 24,260 7.23 175,302
2012-03-05 Branderiz Eric (Principal Accounting Officer) Sale 2,005 7.38 14,796
2012-03-01 Jaap Christopher (Acting Gen Counsel & Ass Sec) Option Ex 3,853 .00 0
2012-03-01 Richards Douglas J. (EVP, Administration) Option Ex 12,714 .00 0
2012-03-01 Wenger Howard (President, Regions) Option Ex 50,513 .00 0
2012-03-01 Arriola Dennis V (EVP & Chief Financial Officer) Option Ex 54,077 .00 0
2012-03-01 Branderiz Eric (Principal Accounting Officer) Option Ex 3,453 .00 0
2012-03-01 Neese Marty T (Chief Operating Officer) Option Ex 44,229 .00 0
2012-03-01 Ledesma Bruce (Legal Counsel & Corp. Sec.) Option Ex 33,092 .00 0
2012-02-13 Wood Patrick Iii Option Ex 9,578 .00 0
2012-02-13 Albrecht W Steve Option Ex 9,578 .00 0
2012-02-13 Mcdaniel Thomas R Option Ex 9,578 .00 0
2012-02-13 Atkins Betsy S Option Ex 9,578 .00 0
2012-02-11 Richards Douglas J. (EVP, Administration) Option Ex 3,334 .00 0
2012-02-11 Wenger Howard (President, Regions) Option Ex 5,001 .00 0
2012-02-11 Arriola Dennis V (EVP & Chief Financial Officer) Option Ex 834 .00 0
2012-02-11 Neese Marty T (Chief Operating Officer) Option Ex 2,501 .00 0
2012-02-11 Werner Thomas H (Director, Pres and CEO) Option Ex 16,668 .00 0
2012-02-11 Ledesma Bruce (Legal Counsel and Corp. Sec.) Option Ex 3,334 .00 0
2012-01-31 Total Gas & Power Usa, Sas (10% Owner) Buy 18,600,000 8.80 163,680,000
2011-11-12 Arriola Dennis V (EVP and CFO) Option Ex 16,668 .00 0
2011-11-11 Wood Patrick Iii Option Ex 9,157 .00 0
2011-11-11 Albrecht W Steve Option Ex 9,157 .00 0
2011-11-11 Mcdaniel Thomas R Option Ex 9,157 .00 0
2011-11-11 Atkins Betsy S Option Ex 9,157 .00 0
2011-11-04 Pape James S (President, R & C) Option Ex 127,501 .00 0
2011-09-11 Richards Douglas J. (EVP, HR and Corp. Svcs.) Option Ex 6,250 .00 0
2011-08-11 Wood Patrick Iii Option Ex 4,719 .00 0
2011-08-11 Albrecht W Steve Option Ex 4,719 .00 0
2011-08-11 Mcdaniel Thomas R Option Ex 4,719 .00 0
2011-08-11 Atkins Betsy S Option Ex 4,719 .00 0
2011-07-12 Neese Marty T (Chief Operating Officer) Sale 9,355 19.76 184,817
2011-07-02 Neese Marty T (Chief Operating Officer) Option Ex 16,668 .00 0
2011-06-28 Bufe Uwe-ernst Option Ex 3,960 .00 0
2011-06-28 Mcdaniel Thomas R Option Ex 3,960 .00 0
2011-05-25 Ledesma Bruce (EVP, Gen Counsel & Corp. Sec.) Option Ex 7,717 2.60 20,064
2011-05-24 Werner Thomas H (Director, Pres and CEO) Option Ex 428,343 3.30 1,413,531
2011-05-23 Wenger Howard (President, U&PP) Option Ex 34,763 1.77 61,530
2011-05-19 Atkins Betsy S Option Ex 13,396 10.15 135,968
2011-05-17 Albrecht W Steve Sale 9,806 20.95 205,435
2011-05-17 Albrecht W Steve Option Ex 21,000 10.15 213,150
2011-05-16 Wood Patrick Iii Sale 2,808 21.07 59,164
2011-05-11 Bufe Uwe-ernst Option Ex 2,574 .00 0
2011-05-11 Wood Patrick Iii Option Ex 2,808 .00 0
2011-05-11 Albrecht W Steve Option Ex 2,808 .00 0
2011-05-11 Mcdaniel Thomas R Option Ex 2,574 .00 0
2011-05-11 Atkins Betsy S Option Ex 2,808 .00 0
2011-05-03 Richards Douglas J. (EVP, HR and Corporate Services) Option Ex 3,333 .00 0
2011-05-03 Wenger Howard (President, U&PP) Option Ex 5,000 .00 0
2011-05-03 Arriola Dennis V (EVP & Chief Financial Officer) Option Ex 6,667 .00 0
2011-05-03 Ledesma Bruce (EVP, Gen Counsel & Corp. Sec.) Sale 2,000 21.26 42,520
2011-05-03 Ledesma Bruce (EVP, Gen Counsel & Corp. Sec.) Option Ex 3,333 .00 0
2011-05-02 Wenger Howard (President, Util. & Pwr Plants) Sale 2,000 21.04 42,088
2011-04-29 Wenger Howard (President, Util. & Pwr Plants) Sale 7,250 21.81 158,129
2011-04-01 Wenger Howard (President, Util. & Pwr Plants) Sale 2,000 17.21 34,418
2011-03-08 Neese Marty T (Chief Operating Officer) Sale 8,442 15.71 132,598
2011-03-07 Ledesma Bruce (EVP, Gen Counsel & Corp. Sec.) Sale 5,276 16.46 86,821
2011-03-01 Pape James S (President, R & C) Option Ex 20,000 .00 0
2011-03-01 Richards Douglas J. (EVP, HR and Corp. Svcs.) Option Ex 31,516 .00 0
2011-03-01 Wenger Howard (President, Util. & Pwr Plants) Sale 2,000 17.36 34,716
2011-03-01 Wenger Howard (President, Util. & Pwr Plants) Option Ex 33,562 .00 0
2011-03-01 Arriola Dennis V (EVP & Chief Financial Officer) Option Ex 37,124 .00 0
2011-03-01 Neese Marty T (Chief Operating Officer) Option Ex 40,999 .00 0
2011-03-01 Werner Thomas H (Director, Pres and CEO) Option Ex 196,931 .00 0
2011-03-01 Ledesma Bruce (EVP, Gen Counsel & Corp. Sec.) Option Ex 18,562 .00 0
2011-02-18 Neese Marty T (Chief Operating Officer) Sale 1,477 19.38 28,624
2011-02-16 Wood Patrick Iii Sale 3,348 17.00 56,916
2011-02-16 Ledesma Bruce (EVP, Gen Counsel & Corp. Sec.) Sale 2,110 16.63 35,089
2011-02-16 Mcdaniel Thomas R Option Ex 1,320 .00 0
2011-02-15 Wood Patrick Iii Sale 3,740 16.42 61,410
2011-02-11 Bufe Uwe-ernst Option Ex 3,428 .00 0
2011-02-11 Richards Douglas J. (EVP, HR and Corporate Services) Option Ex 3,333 .00 0
2011-02-11 Wenger Howard (President, U&PP) Option Ex 4,999 .00 0
2011-02-11 Arriola Dennis V (EVP & Chief Financial Officer) Option Ex 833 .00 0
2011-02-11 Wood Patrick Iii Option Ex 3,740 .00 0
2011-02-11 Neese Marty T (Chief Operating Officer) Option Ex 2,499 .00 0
2011-02-11 Werner Thomas H (Director, Pres and CEO) Option Ex 16,666 .00 0
2011-02-11 Albrecht W Steve Option Ex 3,740 .00 0
2011-02-11 Ledesma Bruce (EVP, Gen Counsel & Corp. Sec.) Option Ex 3,333 .00 0
2011-02-11 Mcdaniel Thomas R Option Ex 3,428 .00 0
2011-02-11 Rodgers Thurman J Option Ex 5,455 .00 0
2011-02-11 Atkins Betsy S Option Ex 3,740 .00 0

Insider trading activities including stock purchases, stock sales, and option exercises of SPWR listed in the above tables cannot be completely guaranteed as to their accuracy. For more insider trading information of Sunpower Corp (symbol SPWR, CIK number 867773) see the Securities and Exchange Commission (SEC) website.